Time;durP1;ratioP1;P1;durP2;ratioP2;P2;SDS_P1;SDS_P2;PMS_P1;PMS_P2;Temp;Humidity;BMP_temperature;BMP_pressure;BME280_temperature;BME280_humidity;BME280_pressure;Samples;Min_cycle;Max_cycle;Signal;HPM_P1;HPM_P2
2022/10/26 00:00:25;;;;;;;;;;;15.20;99.90;;;;;;6150571;23;19924;-79
2022/10/26 00:02:53;;;;;;;;;;;15.20;99.90;;;;;;6151880;23;19995;-80
2022/10/26 00:05:21;;;;;;;;;;;15.20;99.90;;;;;;6151252;23;20257;-79
2022/10/26 00:07:48;;;;;;;;;;;15.20;99.90;;;;;;6153667;23;19924;-79
2022/10/26 00:10:15;;;;;;;;;;;15.20;99.90;;;;;;6153424;23;19921;-79
2022/10/26 00:12:41;;;;;;;;;;;15.30;99.90;;;;;;6154120;23;19928;-79
2022/10/26 00:15:08;;;;;;;;;;;15.30;99.90;;;;;;6152689;23;19924;-79
2022/10/26 00:17:35;;;;;;;;;;;15.30;99.90;;;;;;6127801;23;20334;-79
2022/10/26 00:20:02;;;;;;;;;;;15.40;99.90;;;;;;6129373;23;20000;-79
2022/10/26 00:22:28;;;;;;;;;;;15.40;99.90;;;;;;6128816;23;19930;-79
2022/10/26 00:24:55;;;;;;;;;;;15.40;99.90;;;;;;6129392;23;19926;-79
2022/10/26 00:27:22;;;;;;;;;;;15.30;99.90;;;;;;6128941;23;20000;-79
2022/10/26 00:29:48;;;;;;;;;;;15.30;99.90;;;;;;6129521;23;19931;-79
2022/10/26 00:32:15;;;;;;;;;;;15.30;99.90;;;;;;6128477;23;19921;-79
2022/10/26 00:34:42;;;;;;;;;;;15.30;99.90;;;;;;6129860;23;19927;-78
2022/10/26 00:37:08;;;;;;;;;;;15.30;99.90;;;;;;6129703;23;19931;-79
2022/10/26 00:39:35;;;;;;;;;;;15.30;99.90;;;;;;6128939;23;19927;-79
2022/10/26 00:42:02;;;;;;;;;;;15.30;99.90;;;;;;6129278;23;19928;-79
2022/10/26 00:44:43;;;;;;;;;;;15.30;99.90;;;;;;6128526;23;20264;-79
2022/10/26 00:47:13;;;;;;;;;;;15.30;99.90;;;;;;6129303;23;19920;-79
2022/10/26 00:49:39;;;;;;;;;;;15.30;99.90;;;;;;6128661;23;19920;-79
2022/10/26 00:52:07;;;;;;;;;;;15.40;99.90;;;;;;6129472;23;19940;-79
2022/10/26 00:54:34;;;;;;;;;;;15.30;99.90;;;;;;6154009;23;19927;-78
2022/10/26 00:57:01;;;;;;;;;;;15.40;99.90;;;;;;6155159;23;20282;-78
2022/10/26 00:59:28;;;;;;;;;;;15.40;99.90;;;;;;6128348;23;19942;-78
2022/10/26 01:01:54;;;;;;;;;;;15.40;99.90;;;;;;6154943;23;20341;-79
2022/10/26 01:04:21;;;;;;;;;;;15.40;99.90;;;;;;6128201;23;20349;-78
2022/10/26 01:06:48;;;;;;;;;;;15.40;99.90;;;;;;6154745;23;19924;-79
2022/10/26 01:09:15;;;;;;;;;;;15.30;99.90;;;;;;6154955;23;19948;-78
2022/10/26 01:11:42;;;;;;;;;;;15.40;99.90;;;;;;6153621;23;19999;-78
2022/10/26 01:14:10;;;;;;;;;;;15.30;99.90;;;;;;6154437;23;20065;-78
2022/10/26 01:16:42;;;;;;;;;;;15.40;99.90;;;;;;6128086;23;19995;-79
2022/10/26 01:19:18;;;;;;;;;;;15.30;99.90;;;;;;6129094;23;19995;-79
2022/10/26 01:21:52;;;;;;;;;;;15.30;99.90;;;;;;6154062;23;19995;-79
2022/10/26 01:24:19;;;;;;;;;;;15.30;99.90;;;;;;6128674;23;20226;-79
2022/10/26 01:26:46;;;;;;;;;;;15.30;99.90;;;;;;6128812;23;20294;-78
2022/10/26 01:29:12;;;;;;;;;;;15.20;99.90;;;;;;6128783;23;19920;-79
2022/10/26 01:31:41;;;;;;;;;;;15.30;99.90;;;;;;6127670;23;19920;-79
2022/10/26 01:34:13;;;;;;;;;;;15.30;99.90;;;;;;6128959;23;19925;-79
2022/10/26 01:36:43;;;;;;;;;;;15.30;99.90;;;;;;6153452;23;19920;-78
2022/10/26 01:39:09;;;;;;;;;;;15.30;99.90;;;;;;6128594;23;19921;-79
2022/10/26 01:41:42;;;;;;;;;;;15.40;99.90;;;;;;6127894;23;19991;-79
2022/10/26 01:44:29;;;;;;;;;;;15.30;99.90;;;;;;6128698;23;19960;-78
2022/10/26 01:46:57;;;;;;;;;;;15.30;99.90;;;;;;6128027;23;19991;-78
2022/10/26 01:49:27;;;;;;;;;;;15.30;99.90;;;;;;6128850;23;19931;-78
2022/10/26 01:51:54;;;;;;;;;;;15.30;99.90;;;;;;6127632;23;20260;-78
2022/10/26 01:54:21;;;;;;;;;;;15.40;99.90;;;;;;6128379;23;19924;-78
2022/10/26 01:56:50;;;;;;;;;;;15.40;99.90;;;;;;6127686;23;19935;-78
2022/10/26 01:59:21;;;;;;;;;;;15.40;99.90;;;;;;6128504;23;19996;-78
2022/10/26 02:01:48;;;;;;;;;;;15.40;99.90;;;;;;6127776;23;19921;-78
2022/10/26 02:04:18;;;;;;;;;;;15.40;99.90;;;;;;6128411;23;20359;-78
2022/10/26 02:06:51;;;;;;;;;;;15.40;99.90;;;;;;6127760;23;19975;-78
2022/10/26 02:09:44;;;;;;;;;;;15.40;99.90;;;;;;6128018;23;19948;-78
2022/10/26 02:12:16;;;;;;;;;;;15.40;99.90;;;;;;6148187;23;20004;-77
2022/10/26 02:14:56;;;;;;;;;;;15.50;99.90;;;;;;6152761;23;19927;-79
2022/10/26 02:17:27;;;;;;;;;;;15.50;99.90;;;;;;6152223;23;19921;-78
2022/10/26 02:19:57;;;;;;;;;;;15.50;99.90;;;;;;6153014;23;19956;-79
2022/10/26 02:22:27;;;;;;;;;;;15.50;99.90;;;;;;6153500;23;20243;-79
2022/10/26 02:24:54;;;;;;;;;;;15.50;99.90;;;;;;6152283;23;19955;-79
2022/10/26 02:27:31;;;;;;;;;;;15.50;99.90;;;;;;6151838;23;20268;-78
2022/10/26 02:29:59;;;;;;;;;;;15.50;99.90;;;;;;6152637;23;20257;-78
2022/10/26 02:32:27;;;;;;;;;;;15.50;99.90;;;;;;6151890;23;19943;-78
2022/10/26 02:34:55;;;;;;;;;;;15.50;99.90;;;;;;6153869;23;19925;-79
2022/10/26 02:37:23;;;;;;;;;;;15.60;99.90;;;;;;6151833;23;20327;-78
2022/10/26 02:39:50;;;;;;;;;;;15.60;99.90;;;;;;6152936;23;20302;-78
2022/10/26 02:42:17;;;;;;;;;;;15.50;99.90;;;;;;6152012;23;19920;-78
2022/10/26 02:44:49;;;;;;;;;;;15.50;99.90;;;;;;6152788;23;19987;-79
2022/10/26 02:47:16;;;;;;;;;;;15.50;99.90;;;;;;6151755;23;19928;-78
2022/10/26 02:49:43;;;;;;;;;;;15.50;99.90;;;;;;6153589;23;20353;-80
2022/10/26 02:52:14;;;;;;;;;;;15.50;99.90;;;;;;6152521;23;19921;-79
2022/10/26 02:54:41;;;;;;;;;;;15.50;99.90;;;;;;6152938;23;19921;-79
2022/10/26 02:57:28;;;;;;;;;;;15.50;99.90;;;;;;6152185;23;19921;-79
2022/10/26 02:59:55;;;;;;;;;;;15.60;99.90;;;;;;6152686;23;19996;-79
2022/10/26 03:02:22;;;;;;;;;;;15.50;99.90;;;;;;6153667;23;20318;-78
2022/10/26 03:04:49;;;;;;;;;;;15.50;99.90;;;;;;6151928;23;19930;-79
2022/10/26 03:07:20;;;;;;;;;;;15.50;99.90;;;;;;6152289;23;19921;-79
2022/10/26 03:09:46;;;;;;;;;;;15.50;99.90;;;;;;6152816;23;19963;-79
2022/10/26 03:12:13;;;;;;;;;;;15.50;99.90;;;;;;6127731;23;19999;-79
2022/10/26 03:14:40;;;;;;;;;;;15.50;99.90;;;;;;6128674;23;20238;-79
2022/10/26 03:17:07;;;;;;;;;;;15.50;99.90;;;;;;6127503;23;20231;-80
2022/10/26 03:19:33;;;;;;;;;;;15.40;99.90;;;;;;6128718;23;19920;-79
2022/10/26 03:22:00;;;;;;;;;;;15.40;99.90;;;;;;6128567;23;19992;-79
2022/10/26 03:24:27;;;;;;;;;;;15.40;99.90;;;;;;6127376;23;20964;-79
2022/10/26 03:26:53;;;;;;;;;;;15.50;99.90;;;;;;6128374;23;20253;-79
2022/10/26 03:29:25;;;;;;;;;;;15.40;99.90;;;;;;6128837;23;20000;-79
2022/10/26 03:31:53;;;;;;;;;;;15.50;99.90;;;;;;6128218;23;19952;-79
2022/10/26 03:34:20;;;;;;;;;;;15.50;99.90;;;;;;6128033;23;19995;-79
2022/10/26 03:36:47;;;;;;;;;;;15.50;99.90;;;;;;6130311;23;20317;-79
2022/10/26 03:39:13;;;;;;;;;;;15.50;99.90;;;;;;6129617;23;19928;-79
2022/10/26 03:41:40;;;;;;;;;;;15.60;99.90;;;;;;6130057;23;19920;-79
2022/10/26 03:44:07;;;;;;;;;;;15.60;99.90;;;;;;6130148;23;19968;-79
2022/10/26 03:46:34;;;;;;;;;;;15.60;99.90;;;;;;6129742;23;19952;-79
2022/10/26 03:49:00;;;;;;;;;;;15.70;99.90;;;;;;6130506;23;19992;-79
2022/10/26 03:51:27;;;;;;;;;;;15.80;99.90;;;;;;6129204;23;19927;-78
2022/10/26 03:53:54;;;;;;;;;;;15.80;99.90;;;;;;6130500;23;19924;-79
2022/10/26 03:56:20;;;;;;;;;;;15.90;99.90;;;;;;6129177;23;19940;-79
2022/10/26 03:58:47;;;;;;;;;;;15.90;99.90;;;;;;6130180;23;19925;-78
2022/10/26 04:01:14;;;;;;;;;;;15.90;99.90;;;;;;6129323;23;19931;-79
2022/10/26 04:03:40;;;;;;;;;;;15.90;99.90;;;;;;6130369;23;19921;-79
2022/10/26 04:06:07;;;;;;;;;;;15.90;99.90;;;;;;6130308;23;20003;-79
2022/10/26 04:08:34;;;;;;;;;;;15.90;99.90;;;;;;6129319;23;20000;-79
2022/10/26 04:11:01;;;;;;;;;;;15.90;99.90;;;;;;6129872;23;19920;-79
2022/10/26 04:13:30;;;;;;;;;;;15.90;99.90;;;;;;6129064;23;20021;-79
2022/10/26 04:15:57;;;;;;;;;;;15.90;99.90;;;;;;6130203;23;19952;-78
2022/10/26 04:18:23;;;;;;;;;;;15.90;99.90;;;;;;6129377;23;19988;-79
2022/10/26 04:20:50;;;;;;;;;;;15.90;99.90;;;;;;6130117;23;19921;-79
2022/10/26 04:23:18;;;;;;;;;;;16.00;99.90;;;;;;6129025;23;19920;-79
2022/10/26 04:25:44;;;;;;;;;;;16.00;99.90;;;;;;6130200;23;20326;-79
2022/10/26 04:28:12;;;;;;;;;;;16.00;99.90;;;;;;6128713;23;19921;-79
2022/10/26 04:30:39;;;;;;;;;;;16.00;99.90;;;;;;6130001;23;19931;-79
2022/10/26 04:33:06;;;;;;;;;;;16.10;99.90;;;;;;6129509;23;19921;-78
2022/10/26 04:35:32;;;;;;;;;;;16.10;99.90;;;;;;6129230;23;19920;-79
2022/10/26 04:38:00;;;;;;;;;;;16.10;99.90;;;;;;6129940;23;20359;-79
2022/10/26 04:40:27;;;;;;;;;;;16.00;99.90;;;;;;6128913;23;19992;-79
2022/10/26 04:42:54;;;;;;;;;;;16.00;99.90;;;;;;6130096;23;19924;-79
2022/10/26 04:45:21;;;;;;;;;;;16.00;99.90;;;;;;6154708;23;20285;-79
2022/10/26 04:47:57;;;;;;;;;;;16.00;99.90;;;;;;6129254;23;20328;-79
2022/10/26 04:50:24;;;;;;;;;;;15.90;99.90;;;;;;6128949;23;20001;-79
2022/10/26 04:52:53;;;;;;;;;;;16.00;99.90;;;;;;6130042;23;19924;-80
2022/10/26 04:55:20;;;;;;;;;;;15.90;99.90;;;;;;6128750;23;19991;-79
2022/10/26 04:57:47;;;;;;;;;;;15.90;99.90;;;;;;6129626;23;19931;-80
2022/10/26 05:00:14;;;;;;;;;;;15.90;99.90;;;;;;6128497;23;19973;-79
2022/10/26 05:02:41;;;;;;;;;;;15.90;99.90;;;;;;6155632;23;19960;-79
2022/10/26 05:05:07;;;;;;;;;;;15.90;99.90;;;;;;6129106;23;20274;-79
2022/10/26 05:07:39;;;;;;;;;;;15.90;99.90;;;;;;6153910;23;19931;-79
2022/10/26 05:10:06;;;;;;;;;;;15.90;99.90;;;;;;6153763;23;19920;-79
2022/10/26 05:12:33;;;;;;;;;;;15.90;99.90;;;;;;6152971;23;19921;-79
2022/10/26 05:15:00;;;;;;;;;;;15.80;99.90;;;;;;6154210;23;19925;-79
2022/10/26 05:17:31;;;;;;;;;;;15.80;99.90;;;;;;6153363;23;19927;-79
2022/10/26 05:20:04;;;;;;;;;;;15.80;99.90;;;;;;6154332;23;20023;-78
2022/10/26 05:22:31;;;;;;;;;;;15.80;99.90;;;;;;6153187;23;20298;-79
2022/10/26 05:24:58;;;;;;;;;;;15.80;99.90;;;;;;6153723;23;20384;-79
2022/10/26 05:27:24;;;;;;;;;;;15.70;99.90;;;;;;6153384;23;19920;-78
2022/10/26 05:29:51;;;;;;;;;;;15.70;99.90;;;;;;6153968;23;19995;-79
2022/10/26 05:32:18;;;;;;;;;;;15.70;99.90;;;;;;6152824;23;19995;-79
2022/10/26 05:34:44;;;;;;;;;;;15.60;99.90;;;;;;6153428;23;19921;-79
2022/10/26 05:37:11;;;;;;;;;;;15.60;99.90;;;;;;6153661;23;19996;-78
2022/10/26 05:39:38;;;;;;;;;;;15.60;99.90;;;;;;6152649;23;19991;-79
2022/10/26 05:42:04;;;;;;;;;;;15.50;99.90;;;;;;6153323;23;20254;-79
2022/10/26 05:44:31;;;;;;;;;;;15.50;99.90;;;;;;6154434;23;19996;-79
2022/10/26 05:46:58;;;;;;;;;;;15.40;99.90;;;;;;6153745;23;19948;-79
2022/10/26 05:49:24;;;;;;;;;;;15.40;99.90;;;;;;6152675;23;20000;-79
2022/10/26 05:51:51;;;;;;;;;;;15.40;99.90;;;;;;6153949;23;20357;-78
2022/10/26 05:54:18;;;;;;;;;;;15.40;99.90;;;;;;6152643;23;19948;-78
2022/10/26 05:56:44;;;;;;;;;;;15.30;99.90;;;;;;6153550;23;19927;-79
2022/10/26 05:59:12;;;;;;;;;;;15.20;99.90;;;;;;6153360;23;19996;-79
2022/10/26 06:01:59;;;;;;;;;;;15.10;99.90;;;;;;6152333;23;20262;-79
2022/10/26 06:04:29;;;;;;;;;;;15.00;99.90;;;;;;6151905;23;20007;-78
2022/10/26 06:06:56;;;;;;;;;;;14.90;99.90;;;;;;6153103;23;20000;-79
2022/10/26 06:09:23;;;;;;;;;;;14.90;99.90;;;;;;6152634;23;19995;-79
2022/10/26 06:11:50;;;;;;;;;;;14.90;99.90;;;;;;6152943;23;20373;-79
2022/10/26 06:14:16;;;;;;;;;;;14.90;99.90;;;;;;6153398;23;20244;-79
2022/10/26 06:16:56;;;;;;;;;;;14.90;99.90;;;;;;6152669;23;20499;-79
2022/10/26 06:19:32;;;;;;;;;;;14.90;99.90;;;;;;6152765;23;19944;-79
2022/10/26 06:22:07;;;;;;;;;;;15.00;99.90;;;;;;6153139;23;19931;-79
2022/10/26 06:24:40;;;;;;;;;;;15.10;99.90;;;;;;6154121;23;20300;-79
2022/10/26 06:27:15;;;;;;;;;;;15.10;99.90;;;;;;6152833;23;20036;-79
2022/10/26 06:29:45;;;;;;;;;;;15.30;99.90;;;;;;6154197;23;20318;-80
2022/10/26 06:32:12;;;;;;;;;;;15.40;99.90;;;;;;6152229;23;19920;-78
2022/10/26 06:34:43;;;;;;;;;;;15.50;99.90;;;;;;6150980;23;19959;-80
2022/10/26 06:37:10;;;;;;;;;;;15.50;99.90;;;;;;6153379;23;20041;-80
2022/10/26 06:39:38;;;;;;;;;;;15.50;99.90;;;;;;6150647;23;19921;-79
2022/10/26 06:42:06;;;;;;;;;;;15.60;99.90;;;;;;6152580;23;19952;-79
2022/10/26 06:44:32;;;;;;;;;;;15.60;99.90;;;;;;6151352;23;19920;-79
2022/10/26 06:47:12;;;;;;;;;;;15.60;99.90;;;;;;6152038;23;19925;-80
2022/10/26 06:49:41;;;;;;;;;;;15.60;99.90;;;;;;6151632;23;20400;-79
2022/10/26 06:52:08;;;;;;;;;;;15.60;99.90;;;;;;6153326;23;19943;-78
2022/10/26 06:54:50;;;;;;;;;;;15.70;99.90;;;;;;6152527;23;19927;-79
2022/10/26 06:57:19;;;;;;;;;;;15.70;99.90;;;;;;6152646;23;20341;-79
2022/10/26 06:59:56;;;;;;;;;;;15.80;99.90;;;;;;6151039;23;20113;-80
2022/10/26 07:02:23;;;;;;;;;;;15.80;99.90;;;;;;6150887;23;19999;-80
2022/10/26 07:04:50;;;;;;;;;;;15.90;99.90;;;;;;6151774;23;20230;-78
2022/10/26 07:07:18;;;;;;;;;;;15.90;99.90;;;;;;6152787;23;20000;-78
2022/10/26 07:09:45;;;;;;;;;;;15.90;99.90;;;;;;6151273;23;20391;-79
2022/10/26 07:12:12;;;;;;;;;;;16.00;99.90;;;;;;6128016;23;20223;-78
2022/10/26 07:14:38;;;;;;;;;;;16.00;99.90;;;;;;6125891;23;20357;-80
2022/10/26 07:17:07;;;;;;;;;;;16.10;99.90;;;;;;6153728;23;20003;-80
2022/10/26 07:19:34;;;;;;;;;;;16.10;99.80;;;;;;6126257;23;20298;-80
2022/10/26 07:22:00;;;;;;;;;;;16.20;99.10;;;;;;6153031;23;19924;-79
2022/10/26 07:24:27;;;;;;;;;;;16.20;99.60;;;;;;6125618;23;19939;-79
2022/10/26 07:26:55;;;;;;;;;;;16.30;98.70;;;;;;6128123;23;19948;-79
2022/10/26 07:29:22;;;;;;;;;;;16.30;98.70;;;;;;6153576;23;20322;-79
2022/10/26 07:31:49;;;;;;;;;;;16.30;97.10;;;;;;6126775;23;20003;-79
2022/10/26 07:34:16;;;;;;;;;;;16.40;97.30;;;;;;6151843;23;19924;-79
2022/10/26 07:36:42;;;;;;;;;;;16.40;97.20;;;;;;6125783;23;19987;-79
2022/10/26 07:39:09;;;;;;;;;;;16.40;97.00;;;;;;6127926;23;19924;-79
2022/10/26 07:41:36;;;;;;;;;;;16.40;97.50;;;;;;6126622;23;20027;-80
2022/10/26 07:44:03;;;;;;;;;;;16.50;97.40;;;;;;6127077;23;20356;-79
2022/10/26 07:46:29;;;;;;;;;;;16.50;97.10;;;;;;6126425;23;19991;-80
2022/10/26 07:48:56;;;;;;;;;;;16.50;96.40;;;;;;6127533;23;19924;-79
2022/10/26 07:51:23;;;;;;;;;;;16.60;96.00;;;;;;6127509;23;20007;-79
2022/10/26 07:53:49;;;;;;;;;;;16.60;96.00;;;;;;6126942;23;19952;-79
2022/10/26 07:56:16;;;;;;;;;;;16.60;96.20;;;;;;6127591;23;19927;-79
2022/10/26 07:58:43;;;;;;;;;;;16.60;96.20;;;;;;6127415;23;19921;-79
2022/10/26 08:01:13;;;;;;;;;;;16.60;96.10;;;;;;6128441;23;19921;-80
2022/10/26 08:03:41;;;;;;;;;;;16.60;96.10;;;;;;6128242;23;20285;-79
2022/10/26 08:06:09;;;;;;;;;;;16.60;99.20;;;;;;6128034;23;20337;-79
2022/10/26 08:08:36;;;;;;;;;;;16.60;99.90;;;;;;6127486;23;20337;-77
2022/10/26 08:11:03;;;;;;;;;;;16.70;99.90;;;;;;6128080;23;20252;-79
2022/10/26 08:13:31;;;;;;;;;;;16.70;99.40;;;;;;6127587;23;19988;-79
2022/10/26 08:15:58;;;;;;;;;;;16.80;98.60;;;;;;6128534;23;20332;-79
2022/10/26 08:18:25;;;;;;;;;;;16.90;98.50;;;;;;6128290;23;19996;-79
2022/10/26 08:20:52;;;;;;;;;;;17.00;96.60;;;;;;6153983;23;19920;-79
2022/10/26 08:23:20;;;;;;;;;;;17.20;96.70;;;;;;6129900;23;19928;-79
2022/10/26 08:25:47;;;;;;;;;;;17.30;95.40;;;;;;6129033;23;21341;-79
2022/10/26 08:28:14;;;;;;;;;;;17.40;95.10;;;;;;6129816;23;19931;-79
2022/10/26 08:30:40;;;;;;;;;;;17.50;94.10;;;;;;6129525;23;20256;-80
2022/10/26 08:33:08;;;;;;;;;;;17.60;93.20;;;;;;6130150;23;19951;-79
2022/10/26 08:35:35;;;;;;;;;;;17.60;92.80;;;;;;6154997;23;20252;-80
2022/10/26 08:38:02;;;;;;;;;;;17.80;93.10;;;;;;6129981;23;19930;-79
2022/10/26 08:40:33;;;;;;;;;;;17.90;92.20;;;;;;6128787;23;19928;-80
2022/10/26 08:43:06;;;;;;;;;;;18.10;91.20;;;;;;6129581;23;19948;-79
2022/10/26 08:45:38;;;;;;;;;;;18.30;90.80;;;;;;6129158;23;20000;-79
2022/10/26 08:48:08;;;;;;;;;;;18.40;90.70;;;;;;6127159;23;19999;-79
2022/10/26 08:50:45;;;;;;;;;;;18.50;90.10;;;;;;6128048;23;19940;-80
2022/10/26 08:53:18;;;;;;;;;;;18.60;89.80;;;;;;6128655;23;19927;-79
2022/10/26 08:55:53;;;;;;;;;;;18.60;85.30;;;;;;6128318;23;19927;-79
2022/10/26 08:58:22;;;;;;;;;;;18.70;85.20;;;;;;6128494;23;20016;-78
2022/10/26 09:00:50;;;;;;;;;;;18.70;85.90;;;;;;6127740;23;19935;-79
2022/10/26 09:03:18;;;;;;;;;;;18.90;89.30;;;;;;6127924;23;20290;-79
2022/10/26 09:05:44;;;;;;;;;;;18.90;85.40;;;;;;6128237;23;19995;-80
2022/10/26 09:08:20;;;;;;;;;;;19.00;84.60;;;;;;6129109;23;19921;-79
2022/10/26 09:11:09;;;;;;;;;;;19.20;84.60;;;;;;6139246;23;19992;-80
2022/10/26 09:14:05;;;;;;;;;;;19.20;84.60;;;;;;6140729;23;20223;-80
2022/10/26 09:16:37;;;;;;;;;;;19.40;83.10;;;;;;6130550;23;19996;-79
2022/10/26 09:19:13;;;;;;;;;;;19.60;80.00;;;;;;6151331;23;20341;-80
2022/10/26 09:21:50;;;;;;;;;;;19.80;78.00;;;;;;6153258;23;20406;-80
2022/10/26 09:24:22;;;;;;;;;;;19.90;76.70;;;;;;6153660;23;20369;-80
2022/10/26 09:27:08;;;;;;;;;;;20.10;75.60;;;;;;6153389;23;19999;-80
2022/10/26 09:29:39;;;;;;;;;;;20.30;75.00;;;;;;6152951;23;19995;-79
2022/10/26 09:32:11;;;;;;;;;;;20.40;75.00;;;;;;6153259;23;19921;-78
2022/10/26 09:34:41;;;;;;;;;;;20.50;74.60;;;;;;6152793;23;19920;-79
2022/10/26 09:37:12;;;;;;;;;;;20.30;73.80;;;;;;6153174;23;19951;-80
2022/10/26 09:39:45;;;;;;;;;;;20.40;74.60;;;;;;6152308;23;20257;-80
2022/10/26 09:42:21;;;;;;;;;;;20.50;73.40;;;;;;6153316;23;19945;-78
2022/10/26 09:44:53;;;;;;;;;;;20.30;74.40;;;;;;6152760;23;20314;-79
2022/10/26 09:47:29;;;;;;;;;;;20.40;77.20;;;;;;6153871;23;20000;-81
2022/10/26 09:50:05;;;;;;;;;;;20.60;76.40;;;;;;6153552;23;19951;-80
2022/10/26 09:52:32;;;;;;;;;;;20.80;76.30;;;;;;6153512;23;20261;-80
2022/10/26 09:54:59;;;;;;;;;;;20.70;73.40;;;;;;6152979;23;20003;-80
2022/10/26 09:57:26;;;;;;;;;;;20.80;75.00;;;;;;6154033;23;19939;-80
2022/10/26 09:59:54;;;;;;;;;;;21.00;74.20;;;;;;6153125;23;19999;-80
2022/10/26 10:02:38;;;;;;;;;;;20.90;71.70;;;;;;6153649;23;19920;-79
2022/10/26 10:05:24;;;;;;;;;;;21.00;71.40;;;;;;6141065;23;19921;-80
2022/10/26 10:08:28;;;;;;;;;;;21.20;69.60;;;;;;6152514;23;19927;-79
2022/10/26 10:11:04;;;;;;;;;;;21.50;69.20;;;;;;6151081;23;20341;-79
2022/10/26 10:13:32;;;;;;;;;;;21.60;67.60;;;;;;6152036;23;20397;-79
2022/10/26 10:16:04;;;;;;;;;;;21.80;67.20;;;;;;6151501;23;19925;-80
2022/10/26 10:18:31;;;;;;;;;;;21.60;65.20;;;;;;6151779;23;19927;-79
2022/10/26 10:20:58;;;;;;;;;;;21.60;64.90;;;;;;6151688;23;19983;-80
2022/10/26 10:23:32;;;;;;;;;;;21.60;65.50;;;;;;6151359;23;20260;-79
2022/10/26 10:26:10;;;;;;;;;;;21.80;65.40;;;;;;6150348;23;20386;-80
2022/10/26 10:28:37;;;;;;;;;;;21.80;64.80;;;;;;6152863;23;19967;-79
2022/10/26 10:31:05;;;;;;;;;;;22.00;64.30;;;;;;6154544;23;19932;-79
2022/10/26 10:33:40;;;;;;;;;;;22.20;63.30;;;;;;6154037;23;19927;-78
2022/10/26 10:36:08;;;;;;;;;;;22.30;62.20;;;;;;6150660;23;19920;-78
2022/10/26 10:38:36;;;;;;;;;;;22.40;62.40;;;;;;6153661;23;19940;-79
2022/10/26 10:41:03;;;;;;;;;;;22.50;62.10;;;;;;6151764;23;19940;-79
2022/10/26 10:43:30;;;;;;;;;;;22.40;64.80;;;;;;6151816;23;19920;-79
2022/10/26 10:45:57;;;;;;;;;;;22.50;64.60;;;;;;6153301;23;20261;-80
2022/10/26 10:48:28;;;;;;;;;;;22.60;63.80;;;;;;6152071;23;19944;-79
2022/10/26 10:50:59;;;;;;;;;;;22.70;62.60;;;;;;6152230;23;19928;-79
2022/10/26 10:53:30;;;;;;;;;;;22.60;63.30;;;;;;6153221;23;19925;-79
2022/10/26 10:56:05;;;;;;;;;;;22.50;63.60;;;;;;6151313;23;19923;-79
2022/10/26 10:58:45;;;;;;;;;;;22.60;65.10;;;;;;6150999;23;19927;-79
2022/10/26 11:01:13;;;;;;;;;;;22.60;66.70;;;;;;6151602;23;19971;-79
2022/10/26 11:03:43;;;;;;;;;;;22.70;67.30;;;;;;6152230;23;19968;-79
2022/10/26 11:06:15;;;;;;;;;;;22.30;68.50;;;;;;6151238;23;19934;-79
2022/10/26 11:08:45;;;;;;;;;;;21.90;68.90;;;;;;6152720;23;19927;-79
2022/10/26 11:11:17;;;;;;;;;;;21.80;69.20;;;;;;6150910;23;19927;-79
2022/10/26 11:13:44;;;;;;;;;;;22.00;69.40;;;;;;6142639;23;19921;-79
2022/10/26 11:16:12;;;;;;;;;;;22.10;68.10;;;;;;6150853;23;19927;-79
2022/10/26 11:18:44;;;;;;;;;;;22.30;68.50;;;;;;6151433;23;20365;-79
2022/10/26 11:21:16;;;;;;;;;;;22.10;66.60;;;;;;6151392;23;19928;-79
2022/10/26 11:23:46;;;;;;;;;;;21.90;68.30;;;;;;6152406;23;19995;-78
2022/10/26 11:26:36;;;;;;;;;;;22.10;69.40;;;;;;6150994;23;19935;-79
2022/10/26 11:29:22;;;;;;;;;;;22.40;67.20;;;;;;6141973;23;19952;-79
2022/10/26 11:32:18;;;;;;;;;;;22.40;66.10;;;;;;6151413;23;19924;-79
2022/10/26 11:34:48;;;;;;;;;;;22.50;64.90;;;;;;6126397;23;19987;-79
2022/10/26 11:37:18;;;;;;;;;;;22.50;63.80;;;;;;6151542;23;19927;-78
2022/10/26 11:39:46;;;;;;;;;;;22.50;64.30;;;;;;6150860;23;19996;-79
2022/10/26 11:42:23;;;;;;;;;;;22.10;65.30;;;;;;6151604;23;20256;-79
2022/10/26 11:45:00;;;;;;;;;;;22.10;66.90;;;;;;6151064;23;20334;-79
2022/10/26 11:47:33;;;;;;;;;;;22.20;68.00;;;;;;6150470;23;19999;-79
2022/10/26 11:50:10;;;;;;;;;;;22.00;70.10;;;;;;6151547;23;20330;-79
2022/10/26 11:52:52;;;;;;;;;;;22.10;70.00;;;;;;6150283;23;19963;-79
2022/10/26 11:55:21;;;;;;;;;;;22.30;67.10;;;;;;6151860;23;20255;-79
2022/10/26 11:57:48;;;;;;;;;;;22.50;66.60;;;;;;6151669;23;19925;-79
2022/10/26 12:00:17;;;;;;;;;;;22.60;66.90;;;;;;6152578;23;19921;-79
2022/10/26 12:02:54;;;;;;;;;;;22.90;66.00;;;;;;6151882;23;19956;-79
2022/10/26 12:05:24;;;;;;;;;;;23.20;64.10;;;;;;6153648;23;19920;-79
2022/10/26 12:07:56;;;;;;;;;;;22.70;64.70;;;;;;6152721;23;19999;-79
2022/10/26 12:10:32;;;;;;;;;;;22.80;63.00;;;;;;6153012;23;19995;-79
2022/10/26 12:13:01;;;;;;;;;;;22.60;63.30;;;;;;6151849;23;19963;-79
2022/10/26 12:15:28;;;;;;;;;;;22.50;64.00;;;;;;6152595;23;19948;-79
2022/10/26 12:18:23;;;;;;;;;;;22.60;63.70;;;;;;6152126;23;19920;-79
2022/10/26 12:21:11;;;;;;;;;;;22.60;65.10;;;;;;6154496;23;20013;-79
2022/10/26 12:23:51;;;;;;;;;;;22.80;64.00;;;;;;6153687;23;19925;-80
2022/10/26 12:26:27;;;;;;;;;;;22.80;61.50;;;;;;6152649;23;19997;-79
2022/10/26 12:29:12;;;;;;;;;;;22.90;62.00;;;;;;6154421;23;19930;-79
2022/10/26 12:31:38;;;;;;;;;;;23.00;61.90;;;;;;6153273;23;20258;-80
2022/10/26 12:34:21;;;;;;;;;;;23.20;61.60;;;;;;6152818;23;20385;-79
2022/10/26 12:36:54;;;;;;;;;;;22.90;63.20;;;;;;6153691;23;20004;-79
2022/10/26 12:39:28;;;;;;;;;;;22.60;64.40;;;;;;6152538;23;19959;-79
2022/10/26 12:41:57;;;;;;;;;;;22.40;63.50;;;;;;6153784;23;19927;-79
2022/10/26 12:44:32;;;;;;;;;;;22.50;64.00;;;;;;6152697;23;19939;-79
2022/10/26 12:46:59;;;;;;;;;;;22.60;64.30;;;;;;6152016;23;20304;-81
2022/10/26 12:49:44;;;;;;;;;;;22.70;63.70;;;;;;6152413;23;19947;-79
2022/10/26 12:52:19;;;;;;;;;;;22.80;63.10;;;;;;6151962;23;19927;-79
2022/10/26 12:54:59;;;;;;;;;;;22.80;62.90;;;;;;6153182;23;19920;-79
2022/10/26 12:57:35;;;;;;;;;;;22.90;63.70;;;;;;6152582;23;19927;-79
2022/10/26 13:00:04;;;;;;;;;;;22.70;63.30;;;;;;6152226;23;20334;-79
2022/10/26 13:02:37;;;;;;;;;;;23.00;62.10;;;;;;6153045;23;19997;-79
2022/10/26 13:05:30;;;;;;;;;;;23.20;60.30;;;;;;6153748;23;20373;-80
2022/10/26 13:08:05;;;;;;;;;;;23.40;60.30;;;;;;6152806;23;19927;-79
2022/10/26 13:10:32;;;;;;;;;;;23.40;61.30;;;;;;6153570;23;19927;-79
2022/10/26 13:13:00;;;;;;;;;;;23.30;61.90;;;;;;6128135;23;19924;-79
2022/10/26 13:15:34;;;;;;;;;;;22.90;63.20;;;;;;6126660;23;19925;-79
2022/10/26 13:18:16;;;;;;;;;;;22.60;64.30;;;;;;6128036;23;19951;-79
2022/10/26 13:21:06;;;;;;;;;;;22.50;64.60;;;;;;6128529;23;20011;-79
2022/10/26 13:23:35;;;;;;;;;;;22.50;65.20;;;;;;6125218;23;19927;-79
2022/10/26 13:26:11;;;;;;;;;;;22.60;64.20;;;;;;6127609;23;19924;-79
2022/10/26 13:28:38;;;;;;;;;;;22.40;63.40;;;;;;6127118;23;20032;-79
2022/10/26 13:31:11;;;;;;;;;;;22.30;64.90;;;;;;6127765;23;19924;-81
2022/10/26 13:33:41;;;;;;;;;;;22.40;64.60;;;;;;6126770;23;19948;-79
2022/10/26 13:36:35;;;;;;;;;;;22.50;64.60;;;;;;6127686;23;20372;-79
2022/10/26 13:39:17;;;;;;;;;;;22.80;63.20;;;;;;6118346;23;19931;-79
2022/10/26 13:41:44;;;;;;;;;;;22.90;61.70;;;;;;6151364;23;20256;-78
2022/10/26 13:44:30;;;;;;;;;;;23.00;62.20;;;;;;6152315;23;19968;-79
2022/10/26 13:46:59;;;;;;;;;;;23.20;61.10;;;;;;6151759;23;20027;-79
2022/10/26 13:49:28;;;;;;;;;;;23.50;60.20;;;;;;6152300;23;20330;-79
2022/10/26 13:51:57;;;;;;;;;;;23.70;60.20;;;;;;6151340;23;20429;-79
2022/10/26 13:54:24;;;;;;;;;;;23.40;60.00;;;;;;6152458;23;20268;-78
2022/10/26 13:57:09;;;;;;;;;;;23.30;60.80;;;;;;6151303;23;19950;-80
2022/10/26 13:59:38;;;;;;;;;;;23.00;61.50;;;;;;6152496;23;20234;-79
2022/10/26 14:02:15;;;;;;;;;;;22.70;61.50;;;;;;6127055;23;20004;-79
2022/10/26 14:04:46;;;;;;;;;;;22.80;62.30;;;;;;6126993;23;20231;-79
2022/10/26 14:07:22;;;;;;;;;;;23.00;61.30;;;;;;6127416;23;20000;-79
2022/10/26 14:09:50;;;;;;;;;;;23.20;61.00;;;;;;6126856;23;19920;-79
2022/10/26 14:12:16;;;;;;;;;;;23.20;60.80;;;;;;6127066;23;19921;-79
2022/10/26 14:14:43;;;;;;;;;;;23.30;60.20;;;;;;6126494;23;19925;-79
2022/10/26 14:17:17;;;;;;;;;;;23.20;60.50;;;;;;6127403;23;20302;-79
2022/10/26 14:19:44;;;;;;;;;;;23.10;60.10;;;;;;6126351;23;19968;-79
2022/10/26 14:22:18;;;;;;;;;;;23.20;61.00;;;;;;6127119;23;19955;-79
2022/10/26 14:24:53;;;;;;;;;;;23.00;60.40;;;;;;6128375;23;19925;-79
2022/10/26 14:27:21;;;;;;;;;;;23.10;61.30;;;;;;6128311;23;20321;-79
2022/10/26 14:29:48;;;;;;;;;;;23.10;61.60;;;;;;6152901;23;20019;-79
2022/10/26 14:32:35;;;;;;;;;;;23.00;61.50;;;;;;6131867;23;19929;-79
2022/10/26 14:35:02;;;;;;;;;;;22.90;61.90;;;;;;6127491;23;19956;-79